createdAt,value
2018-04-16T00:00:53.521Z,100.00
2018-04-16T00:03:22.861Z,100.00
2018-04-16T00:05:52.092Z,100.00
2018-04-16T00:08:21.320Z,100.00
2018-04-16T00:10:50.527Z,100.00
2018-04-16T00:13:19.528Z,99.87
2018-04-16T00:15:48.691Z,98.60
2018-04-16T00:18:17.959Z,99.28
2018-04-16T00:20:47.075Z,100.00
2018-04-16T00:23:16.333Z,100.00
2018-04-16T00:25:45.660Z,100.00
2018-04-16T00:28:14.725Z,100.00
2018-04-16T00:30:43.817Z,100.00
2018-04-16T00:33:18.511Z,100.00
2018-04-16T00:35:53.285Z,100.00
2018-04-16T00:38:28.097Z,100.00
2018-04-16T00:41:02.772Z,100.00
2018-04-16T00:43:37.653Z,100.00
2018-04-16T00:46:12.340Z,97.60
2018-04-16T00:48:47.169Z,98.41
2018-04-16T00:51:22.001Z,97.23
2018-04-16T00:54:08.160Z,96.03
2018-04-16T00:56:42.552Z,96.70
2018-04-16T00:59:17.370Z,97.91
2018-04-16T01:01:52.348Z,97.72
2018-04-16T01:04:27.385Z,99.55
2018-04-16T01:07:09.149Z,100.00
2018-04-16T01:09:43.689Z,100.00
2018-04-16T01:12:18.507Z,99.80
2018-04-16T01:14:53.188Z,96.82
2018-04-16T01:17:27.876Z,98.24
2018-04-16T01:20:02.845Z,100.00
2018-04-16T01:22:37.533Z,98.55
2018-04-16T01:25:12.434Z,97.06
2018-04-16T01:30:53.905Z,95.85
2018-04-16T01:33:28.657Z,96.75
2018-04-16T01:36:03.305Z,97.34
2018-04-16T01:38:37.912Z,96.52
2018-04-16T01:41:12.733Z,97.28
2018-04-16T01:43:47.547Z,98.55
2018-04-16T01:46:22.021Z,99.90
2018-04-16T01:48:56.843Z,100.00
2018-04-16T01:51:32.767Z,100.00
2018-04-16T01:54:07.608Z,100.00
2018-04-16T01:56:42.293Z,100.00
2018-04-16T01:59:16.916Z,99.59
2018-04-16T02:01:51.729Z,98.83
2018-04-16T02:07:40.396Z,100.00
2018-04-16T02:10:15.084Z,100.00
2018-04-16T02:12:50.189Z,97.54
2018-04-16T02:15:25.032Z,99.40
2018-04-16T02:17:59.661Z,100.00
2018-04-16T02:20:34.554Z,100.00
2018-04-16T02:23:09.212Z,100.00
2018-04-16T02:25:44.077Z,100.00
2018-04-16T02:28:18.712Z,100.00
2018-04-16T02:30:53.218Z,99.75
2018-04-16T02:33:28.093Z,100.00
2018-04-16T02:36:03.040Z,99.95
2018-04-16T02:38:37.924Z,100.00
2018-04-16T02:41:12.841Z,100.00
2018-04-16T02:43:47.484Z,100.00
2018-04-16T02:46:22.649Z,100.00
2018-04-16T02:48:57.406Z,100.00
2018-04-16T02:51:32.779Z,100.00
2018-04-16T02:54:07.446Z,100.00
2018-04-16T02:56:42.456Z,100.00
2018-04-16T02:59:17.183Z,100.00
2018-04-16T03:01:51.713Z,100.00
2018-04-16T03:04:26.425Z,100.00
2018-04-16T03:07:01.332Z,100.00
2018-04-16T03:09:36.123Z,100.00
2018-04-16T03:12:10.960Z,100.00
2018-04-16T03:14:45.808Z,100.00
2018-04-16T03:17:20.585Z,100.00
2018-04-16T03:19:55.029Z,100.00
2018-04-16T03:22:30.013Z,100.00
2018-04-16T03:25:04.753Z,100.00
2018-04-16T03:27:39.541Z,100.00
2018-04-16T03:30:14.339Z,100.00
2018-04-16T03:32:48.696Z,96.00
2018-04-16T03:35:23.364Z,96.39
2018-04-16T03:37:58.390Z,97.62
2018-04-16T03:40:33.038Z,99.65
2018-04-16T03:43:07.965Z,100.00
2018-04-16T03:45:42.584Z,100.00
2018-04-16T03:48:17.457Z,97.04
2018-04-16T03:50:52.117Z,96.07
2018-04-16T03:53:26.125Z,98.73
2018-04-16T03:56:00.136Z,99.32
2018-04-16T03:58:29.369Z,100.00
2018-04-16T04:00:58.523Z,100.00
2018-04-16T04:03:27.622Z,100.00
2018-04-16T04:05:56.753Z,100.00
2018-04-16T04:08:25.851Z,100.00
2018-04-16T04:10:54.948Z,100.00
2018-04-16T04:13:24.129Z,98.03
2018-04-16T04:15:53.383Z,96.77
2018-04-16T04:18:22.491Z,94.80
2018-04-16T04:20:51.771Z,94.29
2018-04-16T04:23:32.311Z,94.85
2018-04-16T04:26:13.131Z,96.47
2018-04-16T04:28:53.437Z,97.12
2018-04-16T04:31:22.207Z,96.28
2018-04-16T04:33:51.510Z,95.44
2018-04-16T04:36:20.725Z,95.71
2018-04-16T04:38:49.916Z,95.24
2018-04-16T04:41:18.964Z,95.15
2018-04-16T04:43:48.212Z,91.79
2018-04-16T04:46:17.609Z,90.32
2018-04-16T04:48:46.664Z,89.69
2018-04-16T04:51:15.813Z,90.75
2018-04-16T04:53:44.956Z,89.80
2018-04-16T04:56:14.193Z,89.96
2018-04-16T04:58:43.348Z,90.48
2018-04-16T05:01:12.396Z,90.78
2018-04-16T05:03:41.623Z,92.43
2018-04-16T05:06:11.487Z,91.54
2018-04-16T05:08:40.673Z,91.48
2018-04-16T05:11:09.787Z,88.12
2018-04-16T05:13:39.051Z,87.74
2018-04-16T05:16:08.159Z,87.01
2018-04-16T05:18:37.450Z,86.97
2018-04-16T05:21:06.709Z,87.29
2018-04-16T05:23:35.769Z,88.55
2018-04-16T05:26:04.835Z,85.77
2018-04-16T05:28:34.036Z,87.12
2018-04-16T05:31:03.199Z,87.65
2018-04-16T05:33:32.495Z,85.05
2018-04-16T05:36:01.736Z,85.94
2018-04-16T05:38:30.832Z,85.75
2018-04-16T05:41:00.068Z,84.60
2018-04-16T05:43:29.204Z,85.96
2018-04-16T05:45:58.431Z,87.19
2018-04-16T05:48:27.413Z,87.43
2018-04-16T05:50:57.505Z,85.47
2018-04-16T05:53:27.001Z,82.23
2018-04-16T05:55:56.300Z,83.43
2018-04-16T05:58:25.486Z,78.86
2018-04-16T06:00:54.464Z,80.90
2018-04-16T06:03:23.603Z,77.18
2018-04-16T06:05:52.832Z,77.27
2018-04-16T06:08:22.068Z,77.03
2018-04-16T06:10:51.204Z,76.88
2018-04-16T06:13:20.454Z,75.40
2018-04-16T06:15:49.576Z,74.77
2018-04-16T06:18:18.687Z,72.18
2018-04-16T06:20:47.800Z,74.53
2018-04-16T06:23:16.961Z,74.99
2018-04-16T06:25:46.019Z,73.15
2018-04-16T06:28:15.254Z,72.38
2018-04-16T06:30:44.776Z,72.26
2018-04-16T06:33:13.937Z,72.59
2018-04-16T06:35:43.147Z,71.71
2018-04-16T06:38:12.325Z,72.00
2018-04-16T06:40:41.676Z,73.30
2018-04-16T06:43:10.861Z,74.43
2018-04-16T06:45:40.872Z,75.43
2018-04-16T06:48:10.021Z,72.74
2018-04-16T06:50:39.133Z,73.41
2018-04-16T06:53:08.276Z,73.77
2018-04-16T06:55:37.417Z,73.00
2018-04-16T06:58:06.783Z,77.05
2018-04-16T07:00:35.882Z,74.73
2018-04-16T07:03:05.024Z,74.23
2018-04-16T07:05:34.279Z,75.39
2018-04-16T07:08:03.348Z,75.62
2018-04-16T07:10:32.506Z,74.37
2018-04-16T07:13:01.904Z,75.60
2018-04-16T07:15:30.969Z,74.79
2018-04-16T07:18:00.070Z,75.53
2018-04-16T07:20:29.072Z,75.81
2018-04-16T07:22:58.246Z,75.47
2018-04-16T07:25:27.492Z,74.58
2018-04-16T07:27:56.698Z,74.89
2018-04-16T07:30:25.728Z,75.13
2018-04-16T07:32:54.808Z,75.50
2018-04-16T07:35:24.037Z,75.37
2018-04-16T07:37:53.029Z,75.13
2018-04-16T07:40:22.354Z,73.49
2018-04-16T07:42:51.500Z,73.20
2018-04-16T07:45:21.079Z,74.32
2018-04-16T07:47:50.594Z,73.89
2018-04-16T07:50:19.615Z,74.10
2018-04-16T07:52:48.803Z,75.86
2018-04-16T07:55:17.964Z,75.96
2018-04-16T07:57:47.339Z,74.57
2018-04-16T08:00:16.429Z,76.13
2018-04-16T08:02:45.672Z,76.52
2018-04-16T08:05:14.885Z,76.77
2018-04-16T08:07:54.841Z,75.73
2018-04-16T08:10:38.901Z,76.53
2018-04-16T08:13:08.078Z,77.55
2018-04-16T08:15:37.172Z,76.41
2018-04-16T08:18:06.575Z,74.65
2018-04-16T08:20:35.876Z,74.35
2018-04-16T08:23:05.272Z,75.84
2018-04-16T08:25:34.645Z,75.79
2018-04-16T08:28:03.734Z,76.99
2018-04-16T08:30:32.872Z,78.02
2018-04-16T08:33:02.224Z,77.11
2018-04-16T08:35:32.130Z,78.05
2018-04-16T08:38:01.298Z,78.53
2018-04-16T08:40:30.600Z,75.41
2018-04-16T08:42:59.757Z,75.52
2018-04-16T08:45:29.350Z,75.24
2018-04-16T08:47:58.693Z,76.22
2018-04-16T08:50:28.109Z,75.88
2018-04-16T08:52:57.455Z,75.53
2018-04-16T08:55:26.649Z,77.10
2018-04-16T08:57:55.871Z,76.09
2018-04-16T09:00:25.608Z,74.64
2018-04-16T09:02:54.917Z,74.44
2018-04-16T09:05:23.979Z,75.44
2018-04-16T09:07:53.251Z,74.87
2018-04-16T09:10:22.413Z,74.94
2018-04-16T09:12:51.856Z,75.41
2018-04-16T09:15:20.979Z,76.47
2018-04-16T09:17:50.247Z,75.93
2018-04-16T09:20:19.660Z,75.62
2018-04-16T09:22:48.973Z,74.12
2018-04-16T09:25:18.217Z,73.39
2018-04-16T09:27:47.421Z,73.24
2018-04-16T09:30:16.666Z,73.34
2018-04-16T09:32:45.712Z,74.04
2018-04-16T09:35:14.840Z,74.17
2018-04-16T09:37:43.979Z,72.48
2018-04-16T09:40:12.992Z,72.23
2018-04-16T09:42:42.072Z,72.13
2018-04-16T09:45:11.727Z,72.54
2018-04-16T09:47:40.778Z,72.66
2018-04-16T09:50:09.888Z,72.76
2018-04-16T09:52:39.192Z,72.90
2018-04-16T09:55:08.345Z,74.03
2018-04-16T09:57:37.512Z,73.06
2018-04-16T10:00:06.912Z,73.70
2018-04-16T10:02:36.351Z,73.57
2018-04-16T10:05:05.636Z,72.64
2018-04-16T10:07:34.698Z,73.17
2018-04-16T10:10:03.773Z,71.26
2018-04-16T10:12:32.879Z,73.65
2018-04-16T10:15:02.339Z,73.60
2018-04-16T10:17:31.531Z,72.57
2018-04-16T10:20:00.797Z,72.78
2018-04-16T10:22:30.021Z,73.54
2018-04-16T10:24:59.476Z,73.03
2018-04-16T10:27:28.841Z,71.84
2018-04-16T10:29:57.897Z,71.19
2018-04-16T10:32:27.088Z,70.95
2018-04-16T10:34:56.365Z,70.36
2018-04-16T10:37:25.642Z,70.67
2018-04-16T10:39:54.696Z,71.33
2018-04-16T10:42:23.944Z,70.34
2018-04-16T10:44:52.926Z,70.88
2018-04-16T10:47:22.082Z,71.21
2018-04-16T10:49:51.368Z,70.23
2018-04-16T10:52:20.730Z,70.06
2018-04-16T10:54:49.875Z,70.11
2018-04-16T10:57:18.924Z,70.18
2018-04-16T10:59:48.226Z,69.02
2018-04-16T11:02:17.436Z,71.07
2018-04-16T11:04:46.609Z,69.36
2018-04-16T11:07:15.694Z,70.31
2018-04-16T11:09:45.007Z,69.88
2018-04-16T11:12:14.067Z,69.92
2018-04-16T11:14:43.314Z,69.95
2018-04-16T11:17:12.626Z,70.19
2018-04-16T11:19:42.233Z,70.41
2018-04-16T11:22:11.422Z,70.37
2018-04-16T11:24:40.629Z,70.07
2018-04-16T11:27:09.975Z,70.65
2018-04-16T11:29:39.142Z,71.68
2018-04-16T11:32:08.464Z,72.52
2018-04-16T11:34:37.626Z,71.03
2018-04-16T11:37:06.873Z,71.04
2018-04-16T11:39:35.983Z,71.35
2018-04-16T11:42:05.052Z,71.97
2018-04-16T11:44:34.309Z,72.28
2018-04-16T11:47:03.715Z,71.92
2018-04-16T11:49:32.965Z,72.20
2018-04-16T11:52:02.255Z,72.51
2018-04-16T11:54:31.609Z,72.26
2018-04-16T11:57:01.128Z,71.76
2018-04-16T11:59:30.156Z,71.87
2018-04-16T12:01:59.260Z,71.46
2018-04-16T12:04:28.439Z,72.91
2018-04-16T12:06:57.597Z,73.62
2018-04-16T12:09:26.889Z,73.58
2018-04-16T12:11:55.958Z,73.37
2018-04-16T12:14:25.181Z,73.86
2018-04-16T12:16:54.184Z,73.46
2018-04-16T12:19:23.332Z,73.84
2018-04-16T12:21:52.478Z,71.82
2018-04-16T12:24:21.642Z,71.03
2018-04-16T12:26:50.878Z,72.60
2018-04-16T12:29:20.205Z,72.64
2018-04-16T12:31:49.336Z,72.42
2018-04-16T12:34:18.791Z,73.30
2018-04-16T12:36:48.217Z,74.64
2018-04-16T12:39:17.494Z,73.08
2018-04-16T12:41:46.624Z,73.05
2018-04-16T12:44:15.614Z,72.42
2018-04-16T12:46:44.715Z,72.81
2018-04-16T12:49:13.776Z,73.09
2018-04-16T12:51:42.880Z,71.77
2018-04-16T12:54:12.256Z,71.84
2018-04-16T12:56:41.833Z,71.20
2018-04-16T12:59:11.184Z,71.33
2018-04-16T13:01:40.374Z,70.00
2018-04-16T13:04:09.541Z,70.78
2018-04-16T13:06:38.896Z,70.31
2018-04-16T13:09:08.297Z,69.35
2018-04-16T13:11:37.336Z,69.64
2018-04-16T13:14:06.687Z,70.04
2018-04-16T13:16:35.963Z,71.46
2018-04-16T13:19:05.137Z,71.98
2018-04-16T13:21:34.388Z,70.96
2018-04-16T13:24:03.384Z,71.69
2018-04-16T13:26:32.416Z,72.56
2018-04-16T13:29:01.616Z,72.38
2018-04-16T13:31:30.875Z,72.99
2018-04-16T13:33:59.996Z,72.56
2018-04-16T13:36:29.058Z,73.02
2018-04-16T13:38:58.366Z,72.21
2018-04-16T13:41:27.344Z,73.58
2018-04-16T13:43:56.424Z,74.06
2018-04-16T13:46:25.605Z,73.76
2018-04-16T13:48:54.958Z,72.75
2018-04-16T13:51:24.255Z,73.04
2018-04-16T13:53:53.301Z,73.54
2018-04-16T13:56:22.520Z,71.61
2018-04-16T13:58:51.700Z,71.38
2018-04-16T14:01:21.040Z,72.16
2018-04-16T14:03:50.268Z,71.68
2018-04-16T14:06:19.496Z,71.65
2018-04-16T14:08:48.721Z,71.08
2018-04-16T14:11:17.948Z,73.08
2018-04-16T14:13:47.228Z,69.29
2018-04-16T14:16:16.318Z,68.85
2018-04-16T14:18:45.440Z,68.97
2018-04-16T14:21:14.587Z,69.68
2018-04-16T14:23:43.748Z,70.07
2018-04-16T14:26:12.935Z,71.68
2018-04-16T14:28:42.443Z,71.64
2018-04-16T14:31:11.756Z,71.92
2018-04-16T14:33:40.980Z,70.70
2018-04-16T14:36:10.265Z,72.60
2018-04-16T14:38:39.490Z,75.10
2018-04-16T14:41:08.641Z,75.65
2018-04-16T14:43:37.720Z,77.58
2018-04-16T14:46:06.782Z,76.86
2018-04-16T14:48:36.121Z,77.14
2018-04-16T14:51:05.330Z,78.07
2018-04-16T14:53:34.338Z,78.38
2018-04-16T14:56:03.517Z,78.19
2018-04-16T14:58:32.573Z,79.92
2018-04-16T15:01:01.810Z,78.63
2018-04-16T15:03:30.732Z,77.98
2018-04-16T15:05:59.904Z,77.18
2018-04-16T15:08:29.104Z,77.45
2018-04-16T15:10:58.257Z,77.25
2018-04-16T15:13:27.199Z,76.59
2018-04-16T15:15:56.409Z,77.77
2018-04-16T15:18:25.567Z,79.11
2018-04-16T15:20:54.692Z,79.74
2018-04-16T15:23:23.834Z,79.10
2018-04-16T15:25:53.071Z,79.67
2018-04-16T15:28:22.149Z,80.63
2018-04-16T15:30:51.017Z,81.12
2018-04-16T15:33:20.065Z,81.95
2018-04-16T15:35:49.477Z,83.34
2018-04-16T15:38:18.619Z,81.23
2018-04-16T15:40:47.762Z,81.18
2018-04-16T15:43:17.107Z,81.14
2018-04-16T15:45:46.368Z,83.30
2018-04-16T15:48:15.855Z,84.12
2018-04-16T15:50:45.077Z,83.29
2018-04-16T15:53:14.401Z,84.22
2018-04-16T15:55:43.314Z,83.31
2018-04-16T15:58:12.447Z,83.73
2018-04-16T16:00:41.432Z,85.52
2018-04-16T16:03:10.665Z,85.48
2018-04-16T16:05:39.481Z,85.75
2018-04-16T16:08:08.466Z,85.37
2018-04-16T16:10:37.467Z,85.77
2018-04-16T16:13:06.373Z,86.71
2018-04-16T16:15:35.423Z,85.52
2018-04-16T16:18:04.561Z,87.30
2018-04-16T16:20:33.443Z,87.16
2018-04-16T16:23:02.431Z,87.20
2018-04-16T16:25:31.357Z,86.45
2018-04-16T16:28:00.386Z,86.83
2018-04-16T16:30:29.219Z,87.36
2018-04-16T16:32:58.029Z,89.32
2018-04-16T16:35:26.864Z,88.68
2018-04-16T16:37:55.722Z,89.83
2018-04-16T16:40:24.560Z,88.98
2018-04-16T16:42:53.364Z,87.94
2018-04-16T16:45:22.340Z,88.43
2018-04-16T16:47:51.313Z,87.80
2018-04-16T16:50:20.489Z,89.32
2018-04-16T16:52:49.492Z,89.37
2018-04-16T16:55:18.353Z,89.18
2018-04-16T16:57:47.288Z,90.01
2018-04-16T17:00:16.205Z,89.80
2018-04-16T17:02:45.064Z,88.77
2018-04-16T17:05:14.093Z,89.81
2018-04-16T17:07:42.918Z,90.80
2018-04-16T17:10:11.969Z,89.56
2018-04-16T17:12:40.968Z,88.69
2018-04-16T17:15:09.938Z,90.06
2018-04-16T17:17:39.037Z,90.80
2018-04-16T17:20:08.054Z,89.53
2018-04-16T17:22:36.857Z,88.84
2018-04-16T17:25:06.274Z,88.17
2018-04-16T17:27:35.059Z,88.41
2018-04-16T17:30:04.208Z,88.45
2018-04-16T17:32:33.188Z,89.28
2018-04-16T17:35:02.225Z,89.75
2018-04-16T17:37:31.186Z,90.03
2018-04-16T17:40:00.115Z,87.99
2018-04-16T17:42:29.241Z,89.35
2018-04-16T17:44:58.137Z,90.34
2018-04-16T17:47:26.942Z,88.17
2018-04-16T17:49:55.852Z,88.18
2018-04-16T17:52:24.672Z,88.43
2018-04-16T17:54:53.584Z,88.47
2018-04-16T17:57:22.455Z,88.92
2018-04-16T17:59:51.470Z,89.45
2018-04-16T18:02:20.457Z,89.12
2018-04-16T18:04:49.365Z,89.64
2018-04-16T18:07:18.577Z,88.37
2018-04-16T18:09:47.459Z,87.85
2018-04-16T18:12:16.219Z,88.36
2018-04-16T18:14:45.039Z,88.78
2018-04-16T18:17:13.857Z,89.61
2018-04-16T18:19:42.647Z,89.69
2018-04-16T18:22:11.473Z,90.25
2018-04-16T18:24:40.311Z,89.72
2018-04-16T18:27:09.157Z,89.10
2018-04-16T18:29:37.948Z,89.56
2018-04-16T18:32:06.859Z,89.68
2018-04-16T18:34:35.722Z,90.07
2018-04-16T18:37:04.568Z,89.17
2018-04-16T18:39:33.345Z,89.34
2018-04-16T18:42:02.388Z,88.69
2018-04-16T18:44:31.213Z,89.31
2018-04-16T18:47:00.038Z,90.99
2018-04-16T18:49:28.853Z,89.64
2018-04-16T18:51:57.640Z,88.34
2018-04-16T18:54:26.546Z,89.53
2018-04-16T18:56:55.484Z,88.78
2018-04-16T18:59:24.263Z,87.92
2018-04-16T19:01:53.173Z,88.88
2018-04-16T19:04:22.040Z,88.90
2018-04-16T19:06:50.887Z,88.19
2018-04-16T19:09:19.703Z,88.40
2018-04-16T19:11:48.600Z,88.89
2018-04-16T19:14:17.628Z,88.34
2018-04-16T19:16:46.478Z,88.37
2018-04-16T19:19:15.453Z,88.38
2018-04-16T19:21:49.928Z,88.47
2018-04-16T19:24:18.860Z,87.83
2018-04-16T19:26:53.146Z,87.32
2018-04-16T19:29:22.021Z,88.22
2018-04-16T19:31:50.793Z,88.76
2018-04-16T19:34:25.097Z,90.24
2018-04-16T19:36:53.879Z,88.63
2018-04-16T19:39:22.939Z,89.13
2018-04-16T19:41:57.402Z,88.92
2018-04-16T19:44:26.295Z,87.85
2018-04-16T19:46:55.208Z,87.92
2018-04-16T19:52:29.548Z,87.86
2018-04-16T19:54:58.476Z,87.89
2018-04-16T19:57:33.015Z,87.47
2018-04-16T20:00:02.200Z,88.12
2018-04-16T20:02:36.650Z,87.51
2018-04-16T20:05:05.510Z,87.50
2018-04-16T20:07:34.292Z,86.78
2018-04-16T20:10:03.332Z,89.36
2018-04-16T20:12:32.325Z,88.69
2018-04-16T20:15:01.279Z,87.52
2018-04-16T20:17:30.460Z,87.99
2018-04-16T20:20:00.024Z,86.39
2018-04-16T20:22:28.865Z,87.12
2018-04-16T20:24:57.673Z,86.00
2018-04-16T20:27:26.516Z,89.02
2018-04-16T20:29:55.366Z,88.44
2018-04-16T20:32:24.208Z,86.62
2018-04-16T20:34:53.023Z,86.09
2018-04-16T20:37:21.806Z,87.84
2018-04-16T20:39:50.728Z,86.69
2018-04-16T20:42:19.812Z,87.12
2018-04-16T20:44:48.724Z,86.98
2018-04-16T20:47:17.572Z,88.50
2018-04-16T20:49:46.454Z,89.62
2018-04-16T20:52:15.410Z,90.25
2018-04-16T20:54:44.320Z,90.29
2018-04-16T20:57:13.157Z,89.68
2018-04-16T20:59:42.164Z,90.54
2018-04-16T21:02:11.264Z,90.56
2018-04-16T21:04:40.203Z,90.98
2018-04-16T21:07:09.654Z,90.54
2018-04-16T21:09:38.497Z,91.01
2018-04-16T21:12:07.944Z,91.06
2018-04-16T21:14:36.934Z,91.42
2018-04-16T21:17:05.831Z,91.49
2018-04-16T21:19:34.857Z,90.96
2018-04-16T21:22:05.707Z,89.78
2018-04-16T21:24:35.031Z,90.34
2018-04-16T21:27:03.865Z,89.30
2018-04-16T21:29:33.584Z,89.87
2018-04-16T21:32:02.545Z,89.90
2018-04-16T21:34:31.372Z,90.51
2018-04-16T21:37:00.400Z,88.81
2018-04-16T21:39:29.369Z,90.16
2018-04-16T21:41:58.351Z,91.18
2018-04-16T21:44:27.337Z,91.22
2018-04-16T21:46:56.398Z,91.54
2018-04-16T21:49:25.248Z,91.70
2018-04-16T21:51:54.160Z,91.23
2018-04-16T21:54:23.178Z,91.15
2018-04-16T21:56:52.019Z,90.94
2018-04-16T21:59:20.880Z,90.60
2018-04-16T22:01:49.788Z,91.27
2018-04-16T22:04:18.596Z,91.33
2018-04-16T22:06:47.576Z,91.43
2018-04-16T22:09:16.473Z,91.13
2018-04-16T22:11:45.376Z,91.05
2018-04-16T22:14:14.291Z,91.29
2018-04-16T22:16:43.437Z,90.60
2018-04-16T22:19:12.450Z,89.71
2018-04-16T22:21:41.286Z,87.48
2018-04-16T22:24:10.490Z,87.14
2018-04-16T22:26:39.481Z,87.33
2018-04-16T22:29:08.521Z,87.65
2018-04-16T22:31:37.407Z,88.47
2018-04-16T22:34:06.331Z,88.54
2018-04-16T22:36:35.191Z,88.55
2018-04-16T22:39:04.140Z,87.33
2018-04-16T22:41:33.081Z,88.50
2018-04-16T22:44:02.334Z,88.44
2018-04-16T22:46:31.409Z,89.20
2018-04-16T22:49:01.868Z,89.45
2018-04-16T22:51:30.894Z,88.38
2018-04-16T22:53:59.704Z,89.38
2018-04-16T22:56:28.710Z,89.63
2018-04-16T22:58:57.569Z,90.20
2018-04-16T23:01:26.637Z,89.52
2018-04-16T23:03:55.756Z,86.75
2018-04-16T23:06:24.908Z,86.76
2018-04-16T23:08:54.251Z,88.12
2018-04-16T23:11:23.373Z,87.93
2018-04-16T23:13:52.606Z,87.84
2018-04-16T23:16:21.756Z,86.02
2018-04-16T23:18:50.891Z,86.12
2018-04-16T23:21:19.993Z,87.93
2018-04-16T23:23:49.149Z,88.51
2018-04-16T23:26:18.340Z,88.87
2018-04-16T23:28:47.428Z,88.50
2018-04-16T23:31:16.409Z,88.34
2018-04-16T23:33:45.391Z,86.79
2018-04-16T23:36:14.413Z,85.37
2018-04-16T23:38:43.548Z,85.70
2018-04-16T23:41:12.552Z,83.57
2018-04-16T23:43:41.540Z,84.58
2018-04-16T23:46:10.570Z,85.78
2018-04-16T23:48:40.431Z,86.78
2018-04-16T23:51:09.582Z,86.33
2018-04-16T23:53:38.973Z,86.30
2018-04-16T23:56:07.947Z,86.14
2018-04-16T23:58:38.972Z,86.64
